Time;durP1;ratioP1;P1;durP2;ratioP2;P2;SDS_P1;SDS_P2;PMS_P1;PMS_P2;Temp;Humidity;BMP_temperature;BMP_pressure;BME280_temperature;BME280_humidity;BME280_pressure;Samples;Min_cycle;Max_cycle;Signal;HPM_P1;HPM_P2
2021/03/12 00:00:38;;;;;;;;;22.50;17.25;;;;;-142.71;100.00;64517.53;3724865;38;21311;-58
2021/03/12 00:03:19;;;;;;;;;19.75;15.00;;;;;-142.71;100.00;64517.53;3724859;37;21318;-58
2021/03/12 00:05:51;;;;;;;;;10.50;7.00;;;;;-142.71;100.00;64517.53;3724821;38;21317;-58
2021/03/12 00:08:22;;;;;;;;;20.25;17.25;;;;;-142.71;100.00;64517.53;3725319;37;21287;-59
2021/03/12 00:10:49;;;;;;;;;19.00;17.25;;;;;-142.71;100.00;64517.53;3725825;38;21393;-59
2021/03/12 00:13:15;;;;;;;;;23.00;18.00;;;;;-142.71;100.00;64517.53;3725283;37;21310;-60
2021/03/12 00:15:46;;;;;;;;;23.00;18.25;;;;;-142.71;100.00;64517.53;3726068;38;21372;-60
2021/03/12 00:18:14;;;;;;;;;22.75;18.50;;;;;-142.71;100.00;64517.53;3725224;38;21397;-60
2021/03/12 00:20:41;;;;;;;;;22.75;20.50;;;;;-142.71;100.00;64517.53;3725903;38;21299;-59
2021/03/12 00:23:08;;;;;;;;;19.25;15.50;;;;;-142.71;100.00;64517.53;3726205;38;21370;-60
2021/03/12 00:25:47;;;;;;;;;23.75;19.75;;;;;-142.71;100.00;64517.53;3728372;38;21274;-62
2021/03/12 00:28:15;;;;;;;;;18.75;18.50;;;;;-142.71;100.00;64517.53;3726140;38;21253;-60
2021/03/12 00:30:44;;;;;;;;;18.00;17.50;;;;;-142.71;100.00;64517.53;3731295;37;21262;-58
2021/03/12 00:33:13;;;;;;;;;21.50;18.75;;;;;-142.71;100.00;64517.53;3726307;38;21283;-62
2021/03/12 00:35:41;;;;;;;;;18.00;15.25;;;;;-142.71;100.00;64517.53;3726789;37;21260;-59
2021/03/12 00:38:09;;;;;;;;;21.75;18.50;;;;;-142.71;100.00;64517.53;3727000;37;21266;-60
2021/03/12 00:40:55;;;;;;;;;21.25;18.25;;;;;-142.71;100.00;64517.53;3725446;37;21329;-59
2021/03/12 00:43:22;;;;;;;;;21.50;18.75;;;;;-142.71;100.00;64517.53;3726034;37;21237;-59
2021/03/12 00:46:04;;;;;;;;;22.50;18.50;;;;;-142.71;100.00;64517.53;3725663;38;21254;-59
2021/03/12 00:48:31;;;;;;;;;23.00;18.75;;;;;-142.71;100.00;64517.53;3725259;38;21247;-60
2021/03/12 00:51:02;;;;;;;;;21.50;19.00;;;;;-142.71;100.00;64517.53;3725894;37;21246;-60
2021/03/12 00:53:29;;;;;;;;;12.25;6.25;;;;;-142.71;100.00;64517.53;3725331;38;21241;-59
2021/03/12 00:55:56;;;;;;;;;15.00;10.00;;;;;-142.71;100.00;64517.53;3726004;37;21258;-59
2021/03/12 00:58:25;;;;;;;;;27.50;19.25;;;;;-142.71;100.00;64517.53;3725422;38;21318;-61
2021/03/12 01:00:57;;;;;;;;;26.00;19.00;;;;;-142.71;100.00;64517.53;3725388;37;21294;-59
2021/03/12 01:03:24;;;;;;;;;18.25;16.25;;;;;-142.71;100.00;64517.53;3725287;38;21244;-59
2021/03/12 01:05:50;;;;;;;;;22.25;19.00;;;;;-142.71;100.00;64517.53;3725635;37;21241;-61
2021/03/12 01:08:18;;;;;;;;;32.25;25.75;;;;;-142.71;100.00;64517.53;3725537;37;21327;-58
2021/03/12 01:10:44;;;;;;;;;30.50;25.00;;;;;-142.71;100.00;64517.53;3725879;38;21324;-57
2021/03/12 01:13:10;;;;;;;;;25.25;22.75;;;;;-142.71;100.00;64517.53;3725647;38;21317;-59
2021/03/12 01:15:37;;;;;;;;;23.25;18.75;;;;;-142.71;100.00;64517.53;3725804;38;21321;-60
2021/03/12 01:18:06;;;;;;;;;29.75;24.25;;;;;-142.71;100.00;64517.53;3725251;38;21299;-59
2021/03/12 01:20:37;;;;;;;;;29.25;26.75;;;;;-142.71;100.00;64517.53;3725296;37;21319;-60
2021/03/12 01:23:08;;;;;;;;;31.75;28.25;;;;;-142.71;100.00;64517.53;3725284;38;21291;-58
2021/03/12 01:25:43;;;;;;;;;27.00;23.75;;;;;-142.71;100.00;64517.53;3725574;38;21297;-59
2021/03/12 01:28:13;;;;;;;;;26.50;21.75;;;;;-142.71;100.00;64517.53;3725577;38;21290;-60
2021/03/12 01:30:44;;;;;;;;;32.25;23.00;;;;;-142.71;100.00;64517.53;3726521;38;21317;-59
2021/03/12 01:33:11;;;;;;;;;27.75;25.25;;;;;-142.71;100.00;64517.53;3725106;37;21323;-60
2021/03/12 01:35:39;;;;;;;;;23.50;21.00;;;;;-142.71;100.00;64517.53;3727504;38;21307;-60
2021/03/12 01:38:06;;;;;;;;;30.25;26.00;;;;;-142.71;100.00;64517.53;3726426;38;21192;-58
2021/03/12 01:40:57;;;;;;;;;17.25;14.00;;;;;-142.71;100.00;64517.53;3724825;38;21225;-58
2021/03/12 01:43:23;;;;;;;;;25.50;21.00;;;;;-142.71;100.00;64517.53;3725313;38;21317;-61
2021/03/12 01:45:52;;;;;;;;;28.75;22.50;;;;;-142.71;100.00;64517.53;3725135;38;21291;-59
2021/03/12 01:48:23;;;;;;;;;21.75;17.50;;;;;-142.71;100.00;64517.53;3724348;37;21514;-59
2021/03/12 01:50:58;;;;;;;;;36.75;29.50;;;;;-142.71;100.00;64517.53;3724073;37;21249;-63
2021/03/12 01:53:26;;;;;;;;;22.75;18.00;;;;;-142.71;100.00;64517.53;3724691;37;21263;-61
2021/03/12 01:55:57;;;;;;;;;34.75;30.00;;;;;-142.71;100.00;64517.53;3725192;37;21263;-60
2021/03/12 01:58:26;;;;;;;;;32.00;26.00;;;;;-142.71;100.00;64517.53;3724824;38;21267;-55
2021/03/12 02:00:53;;;;;;;;;25.00;20.75;;;;;-142.71;100.00;64517.53;3724785;38;21266;-60
2021/03/12 02:03:27;;;;;;;;;30.00;24.50;;;;;-142.71;100.00;64517.53;3725328;38;21230;-60
2021/03/12 02:05:55;;;;;;;;;26.50;24.50;;;;;-142.71;100.00;64517.53;3725028;37;21221;-59
2021/03/12 02:08:23;;;;;;;;;29.25;26.00;;;;;-142.71;100.00;64517.53;3724925;37;21283;-59
2021/03/12 02:10:55;;;;;;;;;38.75;27.50;;;;;-142.71;100.00;64517.53;3724783;37;21251;-61
2021/03/12 02:13:46;;;;;;;;;31.00;22.00;;;;;-142.71;100.00;64517.53;3725567;37;21237;-60
2021/03/12 02:16:27;;;;;;;;;28.75;24.50;;;;;-142.71;100.00;64517.53;3725652;37;21222;-60
2021/03/12 02:19:33;;;;;;;;;37.00;29.25;;;;;-142.71;100.00;64517.53;3725603;37;21228;-59
2021/03/12 02:22:08;;;;;;;;;31.00;26.00;;;;;-142.71;100.00;64517.53;3733734;37;21253;-60
2021/03/12 02:24:58;;;;;;;;;32.25;24.50;;;;;-142.71;100.00;64517.53;3736011;37;21214;-60
2021/03/12 02:27:26;;;;;;;;;21.25;20.25;;;;;-142.71;100.00;64517.53;3726437;38;21218;-59
2021/03/12 02:29:59;;;;;;;;;36.25;30.00;;;;;-142.71;100.00;64517.53;3728994;38;21188;-58
2021/03/12 02:32:46;;;;;;;;;34.50;22.25;;;;;-142.71;100.00;64517.53;3731974;38;21235;-60
2021/03/12 02:35:17;;;;;;;;;34.25;29.00;;;;;-142.71;100.00;64517.53;3736565;37;21198;-60
2021/03/12 02:37:47;;;;;;;;;31.75;29.00;;;;;-142.71;100.00;64517.53;3729371;37;21290;-59
2021/03/12 02:40:14;;;;;;;;;37.00;26.75;;;;;-142.71;100.00;64517.53;3725362;37;21122;-61
2021/03/12 02:42:42;;;;;;;;;32.25;27.00;;;;;-142.71;100.00;64517.53;3725298;37;21193;-59
2021/03/12 02:45:28;;;;;;;;;33.75;26.25;;;;;-142.71;100.00;64517.53;3725317;38;21512;-60
2021/03/12 02:47:55;;;;;;;;;34.50;28.00;;;;;-142.71;100.00;64517.53;3724673;38;21207;-60
2021/03/12 02:50:22;;;;;;;;;35.50;27.50;;;;;-142.71;100.00;64517.53;3724721;38;21198;-61
2021/03/12 02:52:50;;;;;;;;;34.75;28.75;;;;;-142.71;100.00;64517.53;3725176;37;21165;-60
2021/03/12 02:55:18;;;;;;;;;34.25;26.25;;;;;-142.71;100.00;64517.53;3724707;38;21207;-59
2021/03/12 02:57:47;;;;;;;;;28.25;22.50;;;;;-142.71;100.00;64517.53;3725256;37;21191;-60
2021/03/12 03:00:15;;;;;;;;;33.50;29.00;;;;;-142.71;100.00;64517.53;3725438;38;21180;-60
2021/03/12 03:02:42;;;;;;;;;33.75;28.75;;;;;-142.71;100.00;64517.53;3724940;37;21192;-59
2021/03/12 03:05:13;;;;;;;;;32.00;29.25;;;;;-142.71;100.00;64517.53;3725130;37;21162;-60
2021/03/12 03:07:47;;;;;;;;;29.00;24.50;;;;;-142.71;100.00;64517.53;3725211;38;21188;-61
2021/03/12 03:10:17;;;;;;;;;36.75;29.00;;;;;-142.71;100.00;64517.53;3724727;38;21165;-60
2021/03/12 03:12:47;;;;;;;;;33.25;27.50;;;;;-142.71;100.00;64517.53;3725203;37;21194;-59
2021/03/12 03:15:16;;;;;;;;;34.75;27.00;;;;;-142.71;100.00;64517.53;3724981;37;21148;-60
2021/03/12 03:17:45;;;;;;;;;37.00;27.00;;;;;-142.71;100.00;64517.53;3724782;37;21169;-59
2021/03/12 03:20:16;;;;;;;;;30.00;26.25;;;;;-142.71;100.00;64517.53;3724724;38;21176;-62
2021/03/12 03:22:44;;;;;;;;;37.50;30.00;;;;;-142.71;100.00;64517.53;3724753;37;21149;-59
2021/03/12 03:25:12;;;;;;;;;39.25;27.25;;;;;-142.71;100.00;64517.53;3725372;37;21156;-59
2021/03/12 03:27:41;;;;;;;;;24.50;20.50;;;;;-142.71;100.00;64517.53;3724858;37;21162;-58
2021/03/12 03:30:10;;;;;;;;;30.50;25.25;;;;;-142.71;100.00;64517.53;3724559;37;21161;-59
2021/03/12 03:32:39;;;;;;;;;32.50;28.25;;;;;-142.71;100.00;64517.53;3725183;38;21172;-57
2021/03/12 03:35:08;;;;;;;;;29.00;26.00;;;;;-142.71;100.00;64517.53;3724626;37;21243;-60
2021/03/12 03:37:41;;;;;;;;;19.50;14.00;;;;;-142.71;100.00;64517.53;3725248;37;21130;-60
2021/03/12 03:40:12;;;;;;;;;25.75;22.00;;;;;-142.71;100.00;64517.53;3725305;38;21081;-58
2021/03/12 03:42:46;;;;;;;;;30.50;26.50;;;;;-142.71;100.00;64517.53;3725160;37;21131;-59
2021/03/12 03:45:15;;;;;;;;;29.25;25.50;;;;;-142.71;100.00;64517.53;3724886;37;21151;-59
2021/03/12 03:47:44;;;;;;;;;33.00;26.50;;;;;-142.71;100.00;64517.53;3724798;37;21223;-60
2021/03/12 03:50:14;;;;;;;;;32.25;27.00;;;;;-142.71;100.00;64517.53;3725341;37;21129;-60
2021/03/12 03:52:44;;;;;;;;;25.25;20.25;;;;;-142.71;100.00;64517.53;3724968;38;21141;-58
2021/03/12 03:55:11;;;;;;;;;29.00;24.00;;;;;-142.71;100.00;64517.53;3724718;38;21126;-60
2021/03/12 03:57:39;;;;;;;;;32.25;26.00;;;;;-142.71;100.00;64517.53;3725146;37;21124;-59
2021/03/12 04:00:09;;;;;;;;;30.75;28.25;;;;;-142.71;100.00;64517.53;3725246;38;21093;-60
2021/03/12 04:02:36;;;;;;;;;24.75;20.00;;;;;-142.71;100.00;64517.53;3725020;38;21110;-60
2021/03/12 04:05:05;;;;;;;;;32.75;28.00;;;;;-142.71;100.00;64517.53;3724802;38;21217;-62
2021/03/12 04:07:34;;;;;;;;;21.50;16.75;;;;;-142.71;100.00;64517.53;3725424;38;21113;-59
2021/03/12 04:10:04;;;;;;;;;28.75;24.50;;;;;-142.71;100.00;64517.53;3724825;37;21112;-60
2021/03/12 04:12:34;;;;;;;;;24.75;21.25;;;;;-142.71;100.00;64517.53;3725109;38;21102;-59
2021/03/12 04:15:04;;;;;;;;;28.25;25.00;;;;;-142.71;100.00;64517.53;3726372;37;21092;-59
2021/03/12 04:17:32;;;;;;;;;22.00;20.25;;;;;-142.71;100.00;64517.53;3724869;37;21090;-59
2021/03/12 04:20:01;;;;;;;;;26.75;21.00;;;;;-142.71;100.00;64517.53;3725328;37;21044;-59
2021/03/12 04:22:28;;;;;;;;;28.75;25.25;;;;;-142.71;100.00;64517.53;3725167;38;21080;-60
2021/03/12 04:24:55;;;;;;;;;29.50;26.75;;;;;-142.71;100.00;64517.53;3725113;37;21060;-57
2021/03/12 04:27:23;;;;;;;;;35.50;31.25;;;;;-142.71;100.00;64517.53;3724839;38;21439;-62
2021/03/12 04:29:50;;;;;;;;;33.00;29.75;;;;;-142.71;100.00;64517.53;3724695;37;21046;-61
2021/03/12 04:32:19;;;;;;;;;26.25;21.25;;;;;-142.71;100.00;64517.53;3725245;37;21067;-59
2021/03/12 04:34:46;;;;;;;;;24.25;20.25;;;;;-142.71;100.00;64517.53;3724557;37;21037;-60
2021/03/12 04:37:13;;;;;;;;;32.25;28.25;;;;;-142.71;100.00;64517.53;3725392;38;21046;-62
2021/03/12 04:39:41;;;;;;;;;25.00;23.50;;;;;-142.71;100.00;64517.53;3725346;38;21046;-60
2021/03/12 04:42:10;;;;;;;;;27.25;24.25;;;;;-142.71;100.00;64517.53;3725649;37;21045;-61
2021/03/12 04:44:37;;;;;;;;;26.00;24.00;;;;;-142.71;100.00;64517.53;3725289;37;21036;-60
2021/03/12 04:47:06;;;;;;;;;28.25;26.25;;;;;-142.71;100.00;64517.53;3725230;38;21057;-62
2021/03/12 04:49:42;;;;;;;;;25.75;21.25;;;;;-142.71;100.00;64517.53;3724768;38;21020;-60
2021/03/12 04:52:15;;;;;;;;;38.75;29.75;;;;;-142.71;100.00;64517.53;3725211;37;21016;-62
2021/03/12 04:54:57;;;;;;;;;29.50;21.75;;;;;-142.71;100.00;64517.53;3725124;37;21047;-61
2021/03/12 04:57:23;;;;;;;;;32.00;26.00;;;;;-142.71;100.00;64517.53;3725490;38;21042;-60
2021/03/12 04:59:51;;;;;;;;;29.25;23.25;;;;;-142.71;100.00;64517.53;3726075;37;21014;-58
2021/03/12 05:02:18;;;;;;;;;33.75;28.75;;;;;-142.71;100.00;64517.53;3725562;37;20999;-60
2021/03/12 05:04:52;;;;;;;;;36.50;26.75;;;;;-142.71;100.00;64517.53;3725866;38;20994;-60
2021/03/12 05:07:27;;;;;;;;;27.75;24.50;;;;;-142.71;100.00;64517.53;3726326;37;21027;-60
2021/03/12 05:09:55;;;;;;;;;14.25;13.00;;;;;-142.71;100.00;64517.53;3725738;37;20975;-60
2021/03/12 05:12:25;;;;;;;;;32.25;28.25;;;;;-142.71;100.00;64517.53;3725277;37;20981;-59
2021/03/12 05:14:53;;;;;;;;;29.25;25.50;;;;;-142.71;100.00;64517.53;3726224;38;20966;-59
2021/03/12 05:17:22;;;;;;;;;27.25;22.50;;;;;-142.71;100.00;64517.53;3725335;38;20998;-61
2021/03/12 05:19:49;;;;;;;;;33.75;24.50;;;;;-142.71;100.00;64517.53;3725296;37;21301;-61
2021/03/12 05:22:17;;;;;;;;;31.50;26.50;;;;;-142.71;100.00;64517.53;3725359;37;20993;-61
2021/03/12 05:24:44;;;;;;;;;31.75;26.00;;;;;-142.71;100.00;64517.53;3724848;37;20968;-60
2021/03/12 05:27:12;;;;;;;;;38.75;35.75;;;;;-142.71;100.00;64517.53;3725050;38;21340;-63
2021/03/12 05:29:39;;;;;;;;;32.75;26.75;;;;;-142.71;100.00;64517.53;3724872;38;21322;-61
2021/03/12 05:32:06;;;;;;;;;35.50;28.00;;;;;-142.71;100.00;64517.53;3725111;38;21313;-60
2021/03/12 05:34:33;;;;;;;;;33.50;28.50;;;;;-142.71;100.00;64517.53;3725941;37;21287;-59
2021/03/12 05:37:04;;;;;;;;;31.00;26.75;;;;;-142.71;100.00;64517.53;3725163;38;21322;-57
2021/03/12 05:39:30;;;;;;;;;27.00;25.25;;;;;-142.71;100.00;64517.53;3724482;37;21292;-60
2021/03/12 05:41:57;;;;;;;;;37.00;30.50;;;;;-142.71;100.00;64517.53;3724817;37;21286;-61
2021/03/12 05:44:24;;;;;;;;;27.50;22.50;;;;;-142.71;100.00;64517.53;3725101;37;21287;-61
2021/03/12 05:46:54;;;;;;;;;31.00;26.25;;;;;-142.71;100.00;64517.53;3724646;37;21295;-60
2021/03/12 05:49:22;;;;;;;;;29.25;21.50;;;;;-142.71;100.00;64517.53;3725133;38;21271;-60
2021/03/12 05:51:51;;;;;;;;;35.00;30.00;;;;;-142.71;100.00;64517.53;3724909;38;21307;-59
2021/03/12 05:54:22;;;;;;;;;29.75;21.25;;;;;-142.71;100.00;64517.53;3725045;37;21354;-60
2021/03/12 05:56:48;;;;;;;;;36.00;26.00;;;;;-142.71;100.00;64517.53;3725320;37;21280;-61
2021/03/12 05:59:15;;;;;;;;;29.25;23.75;;;;;-142.71;100.00;64517.53;3725318;38;21275;-60
2021/03/12 06:01:42;;;;;;;;;31.50;27.00;;;;;-142.71;100.00;64517.53;3725318;37;21258;-61
2021/03/12 06:04:08;;;;;;;;;33.75;26.00;;;;;-142.71;100.00;64517.53;3725140;38;21265;-61
2021/03/12 06:06:36;;;;;;;;;26.75;23.50;;;;;-142.71;100.00;64517.53;3725360;37;21252;-60
2021/03/12 06:09:07;;;;;;;;;35.00;29.75;;;;;-142.71;100.00;64517.53;3725615;37;21235;-61
2021/03/12 06:11:34;;;;;;;;;30.75;27.25;;;;;-142.71;100.00;64517.53;3725296;38;21259;-60
2021/03/12 06:14:00;;;;;;;;;32.50;23.25;;;;;-142.71;100.00;64517.53;3725829;38;21246;-59
2021/03/12 06:16:29;;;;;;;;;31.25;26.50;;;;;-142.71;100.00;64517.53;3733318;37;21248;-59
2021/03/12 06:19:20;;;;;;;;;25.50;22.75;;;;;-142.71;100.00;64517.53;3736996;37;21242;-59
2021/03/12 06:21:49;;;;;;;;;34.00;30.50;;;;;-142.71;100.00;64517.53;3726554;37;21209;-60
2021/03/12 06:24:31;;;;;;;;;31.25;27.75;;;;;-142.71;100.00;64517.53;3733090;37;21056;-62
2021/03/12 06:27:06;;;;;;;;;28.75;27.00;;;;;-142.71;100.00;64517.53;3735373;37;21228;-62
2021/03/12 06:29:39;;;;;;;;;39.00;32.75;;;;;-142.71;100.00;64517.53;3733654;37;20880;-62
2021/03/12 06:32:08;;;;;;;;;28.75;25.25;;;;;-142.71;100.00;64517.53;3727017;37;20907;-62
2021/03/12 06:34:37;;;;;;;;;25.25;24.50;;;;;-142.71;100.00;64517.53;3726066;38;20888;-60
2021/03/12 06:37:29;;;;;;;;;30.75;26.75;;;;;-142.71;100.00;64517.53;3725200;38;20877;-58
2021/03/12 06:39:59;;;;;;;;;38.00;34.25;;;;;-142.71;100.00;64517.53;3725701;37;20851;-60
2021/03/12 06:42:27;;;;;;;;;30.50;23.50;;;;;-142.71;100.00;64517.53;3725321;37;20884;-62
2021/03/12 06:45:00;;;;;;;;;29.75;24.50;;;;;-142.71;100.00;64517.53;3725173;38;20867;-62
2021/03/12 06:47:33;;;;;;;;;39.50;34.50;;;;;-142.71;100.00;64517.53;3725759;38;20878;-62
2021/03/12 06:50:03;;;;;;;;;35.50;30.00;;;;;-142.71;100.00;64517.53;3725161;38;20998;-62
2021/03/12 06:52:34;;;;;;;;;30.00;26.25;;;;;-142.71;100.00;64517.53;3725628;38;20987;-62
2021/03/12 06:55:01;;;;;;;;;33.75;30.75;;;;;-142.71;100.00;64517.53;3725457;38;20869;-61
2021/03/12 06:57:29;;;;;;;;;32.00;26.00;;;;;-142.71;100.00;64517.53;3725454;37;20857;-61
2021/03/12 07:00:08;;;;;;;;;36.25;32.75;;;;;-142.71;100.00;64517.53;3725338;38;20861;-61
2021/03/12 07:02:39;;;;;;;;;27.00;25.25;;;;;-142.71;100.00;64517.53;3725045;37;20876;-61
2021/03/12 07:05:07;;;;;;;;;44.25;37.00;;;;;-142.71;100.00;64517.53;3725032;38;20828;-62
2021/03/12 07:07:38;;;;;;;;;36.25;31.25;;;;;-142.71;100.00;64517.53;3725405;38;20868;-62
2021/03/12 07:10:09;;;;;;;;;39.00;30.50;;;;;-142.71;100.00;64517.53;3725113;38;20916;-62
2021/03/12 07:12:52;;;;;;;;;31.25;26.25;;;;;-142.71;100.00;64517.53;3725499;38;20938;-62
2021/03/12 07:15:22;;;;;;;;;36.25;31.00;;;;;-142.71;100.00;64517.53;3725316;38;20846;-64
2021/03/12 07:17:48;;;;;;;;;30.75;27.50;;;;;-142.71;100.00;64517.53;3725421;38;20852;-60
2021/03/12 07:20:18;;;;;;;;;40.50;37.00;;;;;-142.71;100.00;64517.53;3725172;38;20856;-62
2021/03/12 07:22:47;;;;;;;;;36.25;31.00;;;;;-142.71;100.00;64517.53;3725322;37;20847;-61
2021/03/12 07:25:15;;;;;;;;;31.50;29.75;;;;;-142.71;100.00;64517.53;3725479;37;20845;-63
2021/03/12 07:27:50;;;;;;;;;44.50;36.50;;;;;-142.71;100.00;64517.53;3725381;37;20849;-62
2021/03/12 07:30:19;;;;;;;;;33.75;30.25;;;;;-142.71;100.00;64517.53;3725235;37;21029;-60
2021/03/12 07:32:53;;;;;;;;;42.25;34.50;;;;;-142.71;100.00;64517.53;3725140;37;20812;-61
2021/03/12 07:35:24;;;;;;;;;40.50;33.00;;;;;-142.71;100.00;64517.53;3725666;37;20830;-61
2021/03/12 07:37:53;;;;;;;;;47.50;39.75;;;;;-142.71;100.00;64517.53;3725744;38;20858;-61
2021/03/12 07:40:21;;;;;;;;;37.75;32.50;;;;;-142.71;100.00;64517.53;3725634;37;20809;-61
2021/03/12 07:42:48;;;;;;;;;29.25;23.50;;;;;-142.71;100.00;64517.53;3725871;37;20834;-62
2021/03/12 07:45:18;;;;;;;;;35.75;27.75;;;;;-142.71;100.00;64517.53;3725925;38;20813;-60
2021/03/12 07:47:45;;;;;;;;;43.75;37.00;;;;;-142.71;100.00;64517.53;3725752;37;20807;-60
2021/03/12 07:50:38;;;;;;;;;33.50;31.50;;;;;-142.71;100.00;64517.53;3725322;38;20766;-62
2021/03/12 07:53:06;;;;;;;;;31.75;28.50;;;;;-142.71;100.00;64517.53;3724890;38;20769;-62
2021/03/12 07:55:51;;;;;;;;;47.00;35.50;;;;;-142.71;100.00;64517.53;3724856;38;20778;-62
2021/03/12 07:58:50;;;;;;;;;36.25;29.25;;;;;-142.71;100.00;64517.53;3724602;38;20785;-61
2021/03/12 08:01:19;;;;;;;;;37.00;29.00;;;;;-142.71;100.00;64517.53;3725284;37;20798;-62
2021/03/12 08:03:47;;;;;;;;;31.75;29.00;;;;;-142.71;100.00;64517.53;3724965;38;20783;-61
2021/03/12 08:06:32;;;;;;;;;33.75;29.75;;;;;-142.71;100.00;64517.53;3724949;37;20627;-61
2021/03/12 08:08:59;;;;;;;;;28.00;23.75;;;;;-142.71;100.00;64517.53;3725390;38;20756;-62
2021/03/12 08:11:36;;;;;;;;;30.00;27.50;;;;;-142.71;100.00;64517.53;3724769;37;20645;-61
2021/03/12 08:14:18;;;;;;;;;43.75;30.00;;;;;-142.71;100.00;64517.53;3725524;37;20657;-62
2021/03/12 08:17:18;;;;;;;;;29.50;20.00;;;;;-142.71;100.00;64517.53;3725400;37;20765;-61
2021/03/12 08:19:48;;;;;;;;;35.00;30.00;;;;;-142.71;100.00;64517.53;3724983;38;20762;-62
2021/03/12 08:22:46;;;;;;;;;37.00;30.00;;;;;-142.71;100.00;64517.53;3725491;37;20758;-62
2021/03/12 08:25:13;;;;;;;;;37.00;30.50;;;;;-142.71;100.00;64517.53;3725542;38;20756;-62
2021/03/12 08:27:46;;;;;;;;;29.25;21.25;;;;;-142.71;100.00;64517.53;3725490;38;20774;-61
2021/03/12 08:30:43;;;;;;;;;30.25;25.25;;;;;-142.71;100.00;64517.53;3725340;37;20743;-60
2021/03/12 08:33:27;;;;;;;;;32.75;27.25;;;;;-142.71;100.00;64517.53;3725055;37;20640;-61
2021/03/12 08:35:57;;;;;;;;;39.50;32.25;;;;;-142.71;100.00;64517.53;3725130;38;20746;-60
2021/03/12 08:38:43;;;;;;;;;31.00;28.00;;;;;-142.71;100.00;64517.53;3725852;38;20735;-62
2021/03/12 08:41:25;;;;;;;;;26.00;24.75;;;;;-142.71;100.00;64517.53;3725794;37;20711;-60
2021/03/12 08:43:54;;;;;;;;;39.50;35.25;;;;;-142.71;100.00;64517.53;3725769;37;20716;-61
2021/03/12 08:46:25;;;;;;;;;32.75;30.00;;;;;-142.71;100.00;64517.53;3725636;37;20715;-61
2021/03/12 08:48:54;;;;;;;;;35.00;30.00;;;;;-142.71;100.00;64517.53;3726070;38;20728;-61
2021/03/12 08:51:31;;;;;;;;;27.25;26.50;;;;;-142.71;100.00;64517.53;3725484;37;20731;-61
2021/03/12 08:54:03;;;;;;;;;35.50;28.50;;;;;-142.71;100.00;64517.53;3725714;38;20721;-62
2021/03/12 08:56:35;;;;;;;;;31.75;28.25;;;;;-142.71;100.00;64517.53;3726088;38;20697;-61
2021/03/12 08:59:05;;;;;;;;;41.00;32.50;;;;;-142.71;100.00;64517.53;3725828;37;20722;-61
2021/03/12 09:01:32;;;;;;;;;33.75;30.75;;;;;-142.71;100.00;64517.53;3725428;37;20697;-63
2021/03/12 09:04:04;;;;;;;;;39.75;32.50;;;;;-142.71;100.00;64517.53;3725503;38;20694;-62
2021/03/12 09:06:35;;;;;;;;;40.50;33.00;;;;;-142.71;100.00;64517.53;3725752;37;20691;-63
2021/03/12 09:09:02;;;;;;;;;42.25;32.75;;;;;-142.71;100.00;64517.53;3724894;38;20702;-61
2021/03/12 09:11:32;;;;;;;;;38.50;32.50;;;;;-142.71;100.00;64517.53;3725508;37;20756;-63
2021/03/12 09:14:00;;;;;;;;;36.75;29.75;;;;;-142.71;100.00;64517.53;3725782;37;20707;-62
2021/03/12 09:16:29;;;;;;;;;44.50;38.75;;;;;-142.71;100.00;64517.53;3725688;37;20707;-64
2021/03/12 09:18:56;;;;;;;;;44.75;39.75;;;;;-142.71;100.00;64517.53;3725469;37;20693;-64
2021/03/12 09:21:25;;;;;;;;;36.00;33.00;;;;;-142.71;100.00;64517.53;3725705;38;20693;-62
2021/03/12 09:23:53;;;;;;;;;43.25;38.75;;;;;-142.71;100.00;64517.53;3725811;38;20664;-61
2021/03/12 09:26:25;;;;;;;;;90.50;66.25;;;;;-142.71;100.00;64517.53;3726194;37;20680;-62
2021/03/12 09:28:55;;;;;;;;;47.75;37.25;;;;;-142.71;100.00;64517.53;3726382;37;17717;-62
2021/03/12 09:31:30;;;;;;;;;35.50;30.25;;;;;-142.71;100.00;64517.53;3725351;37;20683;-63
2021/03/12 09:33:59;;;;;;;;;43.50;39.75;;;;;-142.71;100.00;64517.53;3725671;37;20660;-62
2021/03/12 09:36:46;;;;;;;;;38.75;34.50;;;;;-142.71;100.00;64517.53;3725512;38;20669;-63
2021/03/12 09:39:24;;;;;;;;;34.25;30.25;;;;;-142.71;100.00;64517.53;3725615;37;20668;-62
2021/03/12 09:42:08;;;;;;;;;40.50;32.25;;;;;-142.71;100.00;64517.53;3725767;37;20655;-63
2021/03/12 09:44:36;;;;;;;;;54.00;42.00;;;;;-142.71;100.00;64517.53;3725642;37;20621;-62
2021/03/12 09:47:08;;;;;;;;;32.25;26.00;;;;;-142.71;100.00;64517.53;3725608;37;20630;-62
2021/03/12 09:49:45;;;;;;;;;38.75;30.75;;;;;-142.71;100.00;64517.53;3725391;38;20652;-61
2021/03/12 09:52:17;;;;;;;;;38.75;37.00;;;;;-142.71;100.00;64517.53;3725201;37;20654;-63
2021/03/12 09:54:52;;;;;;;;;40.25;34.50;;;;;-142.71;100.00;64517.53;3725714;38;20623;-62
2021/03/12 09:57:21;;;;;;;;;33.00;30.25;;;;;-142.71;100.00;64517.53;3725665;37;20629;-62
2021/03/12 09:59:51;;;;;;;;;39.25;34.25;;;;;-142.71;100.00;64517.53;3725544;37;20606;-62
2021/03/12 10:02:19;;;;;;;;;34.75;28.00;;;;;-142.71;100.00;64517.53;3726009;38;20623;-64
2021/03/12 10:04:54;;;;;;;;;46.25;36.50;;;;;-142.71;100.00;64517.53;3725770;38;20608;-63
2021/03/12 10:07:21;;;;;;;;;47.00;39.75;;;;;-142.71;100.00;64517.53;3727668;37;20629;-63
2021/03/12 10:09:51;;;;;;;;;51.50;40.75;;;;;-142.71;100.00;64517.53;3734902;38;20616;-62
2021/03/12 10:12:21;;;;;;;;;45.00;40.25;;;;;-142.71;100.00;64517.53;3734550;37;20616;-61
2021/03/12 10:14:52;;;;;;;;;42.75;36.25;;;;;-142.71;100.00;64517.53;3727840;38;20618;-62
2021/03/12 10:17:26;;;;;;;;;52.00;40.75;;;;;-142.71;100.00;64517.53;3730163;38;20604;-63
2021/03/12 10:20:02;;;;;;;;;45.00;37.00;;;;;-142.71;100.00;64517.53;3731031;37;20632;-61
2021/03/12 10:22:41;;;;;;;;;48.50;38.25;;;;;-142.71;100.00;64517.53;3730540;38;20591;-61
2021/03/12 10:25:26;;;;;;;;;49.75;40.00;;;;;-142.71;100.00;64517.53;3725722;37;20595;-61
2021/03/12 10:28:08;;;;;;;;;62.00;49.75;;;;;-142.71;100.00;64517.53;3725081;38;21585;-64
2021/03/12 10:31:04;;;;;;;;;57.25;46.25;;;;;-142.71;100.00;64517.53;3725603;38;20610;-62
2021/03/12 10:33:32;;;;;;;;;56.75;47.25;;;;;-142.71;100.00;64517.53;3725428;38;20596;-65
2021/03/12 10:36:04;;;;;;;;;49.00;40.75;;;;;-142.71;100.00;64517.53;3725553;37;20591;-62
2021/03/12 10:38:33;;;;;;;;;48.00;40.25;;;;;-142.71;100.00;64517.53;3725100;37;21904;-64
2021/03/12 10:41:22;;;;;;;;;41.50;34.25;;;;;-142.71;100.00;64517.53;3725399;37;21574;-64
2021/03/12 10:44:20;;;;;;;;;42.75;35.75;;;;;-142.71;100.00;64517.53;3725143;38;21597;-62
2021/03/12 10:46:47;;;;;;;;;43.50;36.50;;;;;-142.71;100.00;64517.53;3725465;37;21817;-63
2021/03/12 10:49:34;;;;;;;;;49.00;39.75;;;;;-142.71;100.00;64517.53;3725361;37;21566;-62
2021/03/12 10:52:06;;;;;;;;;40.50;37.50;;;;;-142.71;100.00;64517.53;3725614;38;21553;-64
2021/03/12 10:54:33;;;;;;;;;40.25;35.50;;;;;-142.71;100.00;64517.53;3725958;37;21544;-64
2021/03/12 10:56:59;;;;;;;;;32.25;30.25;;;;;-142.71;100.00;64517.53;3726012;37;21569;-67
2021/03/12 10:59:27;;;;;;;;;39.50;35.50;;;;;-142.71;100.00;64517.53;3725653;38;21547;-63
2021/03/12 11:01:54;;;;;;;;;31.75;29.75;;;;;-142.71;100.00;64517.53;3725145;38;21489;-63
2021/03/12 11:04:23;;;;;;;;;52.00;38.50;;;;;-142.71;100.00;64517.53;3724754;37;21545;-62
2021/03/12 11:06:50;;;;;;;;;36.00;31.25;;;;;-142.71;100.00;64517.53;3725835;38;21875;-62
2021/03/12 11:09:18;;;;;;;;;40.25;36.00;;;;;-142.71;100.00;64517.53;3725741;38;21520;-63
2021/03/12 11:11:45;;;;;;;;;40.00;36.50;;;;;-142.71;100.00;64517.53;3726636;37;21540;-63
2021/03/12 11:14:12;;;;;;;;;29.50;28.25;;;;;-142.71;100.00;64517.53;3725493;38;21555;-63